createdAt,value
2022-11-12T00:01:16.040Z,10.20
2022-11-12T00:04:02.632Z,10.20
2022-11-12T00:06:48.398Z,10.20
2022-11-12T00:09:34.346Z,10.20
2022-11-12T00:12:20.157Z,10.20
2022-11-12T00:15:06.562Z,10.20
2022-11-12T00:17:52.232Z,10.20
2022-11-12T00:20:38.569Z,10.20
2022-11-12T00:23:24.434Z,10.20
2022-11-12T00:26:10.807Z,10.20
2022-11-12T00:28:56.528Z,10.20
2022-11-12T00:31:42.345Z,10.20
2022-11-12T00:34:28.280Z,10.20
2022-11-12T00:37:14.288Z,10.20
2022-11-12T00:40:00.462Z,10.20
2022-11-12T00:42:46.248Z,10.20
2022-11-12T00:45:32.112Z,10.20
2022-11-12T00:48:18.473Z,10.20
2022-11-12T00:51:05.709Z,10.20
2022-11-12T00:53:51.868Z,10.30
2022-11-12T00:56:37.756Z,10.20
2022-11-12T00:59:23.864Z,10.30
2022-11-12T01:02:09.950Z,10.20
2022-11-12T01:04:56.027Z,10.20
2022-11-12T01:07:41.650Z,10.20
2022-11-12T01:10:27.915Z,10.20
2022-11-12T01:13:14.277Z,10.30
2022-11-12T01:16:04.566Z,10.30
2022-11-12T01:18:55.191Z,10.20
2022-11-12T01:21:43.263Z,10.30
2022-11-12T01:24:29.224Z,10.30
2022-11-12T01:27:15.573Z,10.30
2022-11-12T01:30:01.368Z,10.30
2022-11-12T01:32:47.097Z,10.30
2022-11-12T01:35:32.832Z,10.30
2022-11-12T01:38:18.678Z,10.30
2022-11-12T01:41:05.741Z,10.30
2022-11-12T01:44:18.251Z,10.30
2022-11-12T01:47:18.721Z,10.30
2022-11-12T01:50:13.140Z,10.30
2022-11-12T01:53:06.473Z,10.30
2022-11-12T01:55:53.178Z,10.30
2022-11-12T01:58:39.978Z,10.30
2022-11-12T02:01:26.502Z,10.30
2022-11-12T02:04:12.403Z,10.30
2022-11-12T02:06:59.699Z,10.30
2022-11-12T02:09:45.499Z,10.30
2022-11-12T02:12:50.536Z,10.30
2022-11-12T02:15:38.024Z,10.30
2022-11-12T02:18:24.409Z,10.30
2022-11-12T02:21:10.372Z,10.30
2022-11-12T02:23:59.550Z,10.30
2022-11-12T02:26:48.820Z,10.30
2022-11-12T02:29:34.856Z,10.30
2022-11-12T02:32:20.387Z,10.30
2022-11-12T02:35:06.782Z,10.30
2022-11-12T02:37:52.697Z,10.30
2022-11-12T02:40:38.759Z,10.30
2022-11-12T02:43:24.275Z,10.30
2022-11-12T02:46:11.385Z,10.30
2022-11-12T02:48:57.924Z,10.30
2022-11-12T02:51:44.375Z,10.30
2022-11-12T02:54:29.867Z,10.30
2022-11-12T02:57:15.591Z,10.30
2022-11-12T03:00:01.198Z,10.30
2022-11-12T03:02:59.198Z,10.30
2022-11-12T03:05:46.757Z,10.30
2022-11-12T03:08:32.434Z,10.30
2022-11-12T03:11:18.339Z,10.30
2022-11-12T03:14:05.000Z,10.30
2022-11-12T03:16:50.544Z,10.30
2022-11-12T03:19:36.873Z,10.30
2022-11-12T03:22:22.277Z,10.30
2022-11-12T03:25:09.637Z,10.30
2022-11-12T03:28:03.212Z,10.30
2022-11-12T03:30:49.817Z,10.40
2022-11-12T03:33:35.886Z,10.30
2022-11-12T03:36:21.962Z,10.40
2022-11-12T03:39:07.660Z,10.40
2022-11-12T03:41:53.949Z,10.40
2022-11-12T03:44:39.527Z,10.40
2022-11-12T03:47:25.224Z,10.40
2022-11-12T03:50:12.203Z,10.40
2022-11-12T03:52:59.709Z,10.40
2022-11-12T03:55:45.670Z,10.40
2022-11-12T03:58:31.614Z,10.40
2022-11-12T04:01:17.391Z,10.40
2022-11-12T04:04:03.611Z,10.40
2022-11-12T04:07:08.044Z,10.40
2022-11-12T04:09:54.106Z,10.40
2022-11-12T04:12:58.551Z,10.40
2022-11-12T04:15:44.859Z,10.40
2022-11-12T04:18:49.062Z,10.40
2022-11-12T04:21:51.984Z,10.40
2022-11-12T04:24:58.138Z,10.40
2022-11-12T04:27:44.089Z,10.40
2022-11-12T04:30:29.938Z,10.40
2022-11-12T04:33:16.578Z,10.40
2022-11-12T04:36:02.499Z,10.40
2022-11-12T04:38:48.590Z,10.40
2022-11-12T04:41:52.959Z,10.40
2022-11-12T04:44:58.019Z,10.40
2022-11-12T04:47:44.136Z,10.40
2022-11-12T04:50:30.571Z,10.40
2022-11-12T04:53:16.954Z,10.40
2022-11-12T04:56:02.871Z,10.40
2022-11-12T04:58:48.770Z,10.40
2022-11-12T05:01:35.376Z,10.40
2022-11-12T05:04:22.170Z,10.40
2022-11-12T05:07:08.291Z,10.40
2022-11-12T05:09:54.123Z,10.40
2022-11-12T05:12:40.080Z,10.40
2022-11-12T05:15:26.209Z,10.40
2022-11-12T05:18:12.046Z,10.40
2022-11-12T05:20:57.649Z,10.40
2022-11-12T05:23:43.837Z,10.40
2022-11-12T05:26:30.488Z,10.40
2022-11-12T05:29:17.108Z,10.40
2022-11-12T05:32:03.995Z,10.40
2022-11-12T05:34:49.843Z,10.40
2022-11-12T05:37:35.609Z,10.40
2022-11-12T05:40:21.604Z,10.40
2022-11-12T05:43:07.191Z,10.40
2022-11-12T05:45:53.146Z,10.40
2022-11-12T05:48:41.010Z,10.40
2022-11-12T05:51:27.141Z,10.40
2022-11-12T05:54:12.929Z,10.40
2022-11-12T05:56:58.967Z,10.30
2022-11-12T05:59:44.802Z,10.40
2022-11-12T06:02:30.845Z,10.40
2022-11-12T06:05:16.821Z,10.30
2022-11-12T06:08:05.999Z,10.30
2022-11-12T06:10:52.776Z,10.40
2022-11-12T06:13:39.011Z,10.30
2022-11-12T06:16:25.786Z,10.40
2022-11-12T06:19:11.908Z,10.40
2022-11-12T06:21:58.048Z,10.30
2022-11-12T06:24:44.522Z,10.40
2022-11-12T06:27:30.494Z,10.30
2022-11-12T06:30:16.440Z,10.40
2022-11-12T06:33:01.872Z,10.40
2022-11-12T06:35:48.087Z,10.40
2022-11-12T06:38:35.619Z,10.30
2022-11-12T06:41:21.549Z,10.30
2022-11-12T06:44:07.355Z,10.30
2022-11-12T06:46:53.194Z,10.30
2022-11-12T06:49:39.263Z,10.30
2022-11-12T06:52:25.351Z,10.30
2022-11-12T06:55:11.235Z,10.30
2022-11-12T06:57:57.645Z,10.30
2022-11-12T07:00:43.185Z,10.30
2022-11-12T07:03:29.012Z,10.30
2022-11-12T07:06:19.348Z,10.30
2022-11-12T07:09:06.388Z,10.30
2022-11-12T07:11:51.822Z,10.30
2022-11-12T07:14:37.463Z,10.30
2022-11-12T07:17:23.296Z,10.30
2022-11-12T07:20:09.961Z,10.30
2022-11-12T07:22:59.478Z,10.30
2022-11-12T07:25:45.629Z,10.30
2022-11-12T07:28:32.157Z,10.30
2022-11-12T07:31:19.442Z,10.30
2022-11-12T07:34:05.185Z,10.30
2022-11-12T07:36:52.008Z,10.30
2022-11-12T07:39:37.957Z,10.30
2022-11-12T07:42:24.150Z,10.20
2022-11-12T07:45:10.144Z,10.20
2022-11-12T07:47:59.468Z,10.20
2022-11-12T07:50:45.239Z,10.20
2022-11-12T07:53:31.333Z,10.20
2022-11-12T07:56:20.054Z,10.20
2022-11-12T07:59:07.541Z,10.20
2022-11-12T08:01:53.068Z,10.20
2022-11-12T08:04:39.385Z,10.20
2022-11-12T08:07:25.079Z,10.20
2022-11-12T08:10:11.342Z,10.20
2022-11-12T08:12:57.398Z,10.20
2022-11-12T08:15:48.008Z,10.20
2022-11-12T08:18:36.842Z,10.10
2022-11-12T08:21:22.866Z,10.10
2022-11-12T08:24:08.994Z,10.10
2022-11-12T08:26:55.053Z,10.10
2022-11-12T08:29:40.446Z,10.20
2022-11-12T08:32:27.058Z,10.20
2022-11-12T08:35:13.029Z,10.20
2022-11-12T08:38:04.481Z,10.20
2022-11-12T08:40:50.626Z,10.20
2022-11-12T08:43:37.695Z,10.20
2022-11-12T08:46:23.745Z,10.10
2022-11-12T08:49:09.677Z,10.10
2022-11-12T08:51:55.927Z,10.20
2022-11-12T08:54:43.378Z,10.20
2022-11-12T08:57:29.004Z,10.20
2022-11-12T09:00:15.932Z,10.20
2022-11-12T09:03:03.245Z,10.20
2022-11-12T09:05:51.966Z,10.20
2022-11-12T09:08:38.023Z,10.20
2022-11-12T09:11:23.757Z,10.20
2022-11-12T09:14:09.613Z,10.30
2022-11-12T09:16:55.847Z,10.30
2022-11-12T09:19:43.227Z,10.30
2022-11-12T09:22:29.131Z,10.30
2022-11-12T09:25:15.277Z,10.20
2022-11-12T09:28:18.533Z,10.20
2022-11-12T09:31:03.949Z,10.30
2022-11-12T09:33:50.313Z,10.30
2022-11-12T09:36:39.796Z,10.30
2022-11-12T09:39:26.318Z,10.30
2022-11-12T09:42:17.611Z,10.30
2022-11-12T09:45:07.586Z,10.30
2022-11-12T09:47:58.955Z,10.40
2022-11-12T09:51:01.716Z,10.40
2022-11-12T09:54:18.122Z,10.40
2022-11-12T09:57:10.115Z,10.40
2022-11-12T09:59:57.130Z,10.40
2022-11-12T10:02:55.744Z,10.40
2022-11-12T10:05:53.844Z,10.50
2022-11-12T10:08:43.690Z,10.50
2022-11-12T10:12:09.416Z,10.50
2022-11-12T10:15:23.931Z,10.50
2022-11-12T10:18:33.638Z,10.50
2022-11-12T10:21:41.072Z,10.60
2022-11-12T10:24:35.673Z,10.60
2022-11-12T10:27:27.017Z,10.60
2022-11-12T10:30:19.725Z,10.60
2022-11-12T10:33:06.440Z,10.60
2022-11-12T10:35:53.565Z,10.70
2022-11-12T10:38:45.277Z,10.70
2022-11-12T10:41:33.464Z,10.70
2022-11-12T10:44:27.404Z,10.70
2022-11-12T10:47:21.514Z,10.70
2022-11-12T10:50:13.149Z,10.80
2022-11-12T10:53:07.020Z,10.80
2022-11-12T10:55:58.812Z,10.80
2022-11-12T10:58:44.688Z,10.80
2022-11-12T11:01:35.679Z,10.80
2022-11-12T11:04:35.633Z,10.90
2022-11-12T11:07:26.413Z,10.90
2022-11-12T11:10:29.202Z,10.90
2022-11-12T11:13:28.149Z,10.90
2022-11-12T11:16:23.053Z,11.00
2022-11-12T11:19:09.829Z,10.90
2022-11-12T11:22:06.861Z,10.90
2022-11-12T11:25:08.213Z,11.00
2022-11-12T11:27:59.164Z,11.00
2022-11-12T11:30:56.296Z,11.00
2022-11-12T11:34:23.084Z,11.00
2022-11-12T11:37:30.328Z,11.00
2022-11-12T11:40:34.121Z,11.00
2022-11-12T11:43:47.470Z,11.10
2022-11-12T11:46:47.095Z,11.10
2022-11-12T11:49:55.117Z,11.10
2022-11-12T11:53:18.592Z,11.00
2022-11-12T11:56:18.332Z,11.10
2022-11-12T11:59:38.806Z,11.10
2022-11-12T12:02:33.303Z,11.10
2022-11-12T12:05:27.589Z,11.10
2022-11-12T12:08:31.737Z,11.10
2022-11-12T12:11:47.687Z,11.10
2022-11-12T12:14:51.839Z,11.10
2022-11-12T12:18:04.103Z,11.10
2022-11-12T12:21:03.390Z,11.10
2022-11-12T12:24:20.467Z,11.10
2022-11-12T12:27:20.203Z,11.10
2022-11-12T12:30:22.743Z,11.10
2022-11-12T12:33:41.913Z,11.10
2022-11-12T12:36:44.031Z,11.10
2022-11-12T12:40:05.330Z,11.10
2022-11-12T12:43:14.923Z,11.20
2022-11-12T12:46:02.311Z,11.20
2022-11-12T12:48:51.753Z,11.10
2022-11-12T12:51:37.355Z,11.10
2022-11-12T12:54:40.279Z,11.10
2022-11-12T12:57:46.399Z,11.10
2022-11-12T13:00:41.200Z,11.10
2022-11-12T13:03:48.297Z,11.10
2022-11-12T13:06:53.162Z,11.10
2022-11-12T13:09:39.466Z,11.10
2022-11-12T13:13:03.736Z,11.00
2022-11-12T13:15:50.906Z,11.00
2022-11-12T13:18:39.682Z,11.00
2022-11-12T13:21:25.887Z,11.00
2022-11-12T13:24:11.460Z,10.90
2022-11-12T13:27:01.157Z,10.90
2022-11-12T13:29:47.980Z,10.90
2022-11-12T13:32:48.775Z,10.90
2022-11-12T13:35:39.665Z,10.90
2022-11-12T13:38:26.699Z,10.90
2022-11-12T13:41:41.462Z,10.90
2022-11-12T13:44:29.148Z,11.00
2022-11-12T13:47:20.685Z,10.90
2022-11-12T13:50:09.914Z,10.90
2022-11-12T13:52:56.152Z,11.00
2022-11-12T13:55:49.660Z,10.90
2022-11-12T13:58:36.518Z,10.90
2022-11-12T14:01:24.381Z,10.90
2022-11-12T14:04:23.945Z,10.90
2022-11-12T14:07:39.852Z,10.90
2022-11-12T14:10:47.894Z,10.90
2022-11-12T14:13:58.694Z,10.90
2022-11-12T14:17:21.006Z,10.90
2022-11-12T14:20:20.411Z,10.90
2022-11-12T14:23:18.786Z,10.90
2022-11-12T14:26:10.847Z,10.90
2022-11-12T14:28:57.037Z,10.90
2022-11-12T14:31:43.252Z,10.90
2022-11-12T14:34:32.327Z,10.90
2022-11-12T14:37:43.231Z,10.90
2022-11-12T14:40:39.520Z,10.90
2022-11-12T14:43:35.194Z,10.90
2022-11-12T14:46:31.126Z,10.90
2022-11-12T14:49:31.023Z,10.90
2022-11-12T14:52:16.852Z,10.90
2022-11-12T14:55:15.614Z,10.80
2022-11-12T14:58:02.609Z,10.80
2022-11-12T15:00:51.776Z,10.80
2022-11-12T15:03:37.667Z,10.80
2022-11-12T15:06:34.359Z,10.80
2022-11-12T15:09:32.558Z,10.80
2022-11-12T15:12:25.184Z,10.80
2022-11-12T15:15:22.374Z,10.80
2022-11-12T15:18:20.005Z,10.70
2022-11-12T15:21:23.686Z,10.70
2022-11-12T15:24:12.596Z,10.70
2022-11-12T15:27:00.917Z,10.70
2022-11-12T15:29:47.017Z,10.70
2022-11-12T15:32:34.558Z,10.70
2022-11-12T15:35:44.365Z,10.70
2022-11-12T15:38:37.908Z,10.70
2022-11-12T15:41:25.949Z,10.70
2022-11-12T15:44:12.727Z,10.60
2022-11-12T15:46:59.946Z,10.60
2022-11-12T15:49:49.875Z,10.60
2022-11-12T15:52:35.886Z,10.60
2022-11-12T15:55:22.235Z,10.60
2022-11-12T15:58:27.398Z,10.60
2022-11-12T16:01:13.636Z,10.60
2022-11-12T16:03:59.764Z,10.50
2022-11-12T16:06:45.352Z,10.50
2022-11-12T16:09:31.517Z,10.50
2022-11-12T16:12:17.474Z,10.50
2022-11-12T16:15:04.101Z,10.50
2022-11-12T16:17:50.696Z,10.50
2022-11-12T16:20:37.116Z,10.50
2022-11-12T16:23:22.991Z,10.50
2022-11-12T16:26:12.257Z,10.40
2022-11-12T16:29:01.049Z,10.50
2022-11-12T16:31:47.903Z,10.50
2022-11-12T16:34:33.525Z,10.40
2022-11-12T16:37:20.008Z,10.50
2022-11-12T16:40:09.815Z,10.50
2022-11-12T16:42:58.864Z,10.50
2022-11-12T16:45:45.605Z,10.50
2022-11-12T16:48:32.378Z,10.50
2022-11-12T16:51:20.110Z,10.50
2022-11-12T16:54:06.473Z,10.50
2022-11-12T16:56:52.086Z,10.50
2022-11-12T16:59:38.694Z,10.50
2022-11-12T17:02:24.345Z,10.50
2022-11-12T17:05:20.533Z,10.50
2022-11-12T17:08:07.396Z,10.50
2022-11-12T17:10:53.801Z,10.50
2022-11-12T17:13:39.876Z,10.60
2022-11-12T17:16:28.376Z,10.50
2022-11-12T17:19:14.155Z,10.60
2022-11-12T17:22:03.286Z,10.60
2022-11-12T17:24:51.497Z,10.60
2022-11-12T17:27:38.131Z,10.60
2022-11-12T17:30:24.218Z,10.60
2022-11-12T17:33:10.164Z,10.60
2022-11-12T17:36:01.992Z,10.60
2022-11-12T17:38:48.636Z,10.60
2022-11-12T17:41:34.710Z,10.60
2022-11-12T17:44:21.082Z,10.60
2022-11-12T17:47:06.919Z,10.60
2022-11-12T17:49:53.091Z,10.60
2022-11-12T17:52:39.002Z,10.60
2022-11-12T17:55:25.392Z,10.60
2022-11-12T17:58:11.177Z,10.60
2022-11-12T18:01:07.432Z,10.60
2022-11-12T18:03:55.868Z,10.70
2022-11-12T18:06:42.469Z,10.60
2022-11-12T18:09:58.151Z,10.60
2022-11-12T18:12:46.752Z,10.60
2022-11-12T18:15:32.441Z,10.60
2022-11-12T18:18:19.835Z,10.60
2022-11-12T18:21:06.189Z,10.60
2022-11-12T18:23:55.170Z,10.60
2022-11-12T18:27:01.293Z,10.60
2022-11-12T18:29:53.335Z,10.60
2022-11-12T18:32:54.534Z,10.60
2022-11-12T18:35:41.197Z,10.60
2022-11-12T18:38:37.137Z,10.60
2022-11-12T18:41:34.032Z,10.60
2022-11-12T18:44:25.737Z,10.60
2022-11-12T18:47:12.944Z,10.60
2022-11-12T18:50:00.166Z,10.60
2022-11-12T18:52:54.976Z,10.60
2022-11-12T18:55:57.073Z,10.60
2022-11-12T18:58:46.718Z,10.60
2022-11-12T19:01:32.737Z,10.60
2022-11-12T19:04:19.058Z,10.60
2022-11-12T19:07:09.089Z,10.60
2022-11-12T19:10:41.635Z,10.60
2022-11-12T19:13:30.948Z,10.60
2022-11-12T19:16:23.136Z,10.60
2022-11-12T19:19:16.720Z,10.60
2022-11-12T19:22:14.559Z,10.60
2022-11-12T19:25:15.539Z,10.60
2022-11-12T19:28:01.924Z,10.50
2022-11-12T19:30:47.960Z,10.60
2022-11-12T19:33:34.563Z,10.60
2022-11-12T19:36:24.957Z,10.60
2022-11-12T19:39:10.716Z,10.60
2022-11-12T19:41:56.756Z,10.60
2022-11-12T19:44:43.268Z,10.60
2022-11-12T19:47:32.677Z,10.60
2022-11-12T19:50:24.412Z,10.60
2022-11-12T19:53:17.257Z,10.60
2022-11-12T19:56:52.845Z,10.60
2022-11-12T19:59:42.297Z,10.70
2022-11-12T20:02:29.197Z,10.70
2022-11-12T20:05:15.914Z,10.70
2022-11-12T20:08:02.210Z,10.70
2022-11-12T20:10:57.310Z,10.70
2022-11-12T20:13:43.502Z,10.70
2022-11-12T20:16:29.959Z,10.70
2022-11-12T20:19:15.647Z,10.70
2022-11-12T20:22:02.211Z,10.70
2022-11-12T20:24:47.785Z,10.70
2022-11-12T20:27:34.073Z,10.70
2022-11-12T20:30:20.043Z,10.70
2022-11-12T20:33:06.426Z,10.70
2022-11-12T20:36:17.407Z,10.70
2022-11-12T20:39:16.402Z,10.70
2022-11-12T20:42:02.423Z,10.70
2022-11-12T20:44:48.558Z,10.70
2022-11-12T20:47:34.293Z,10.80
2022-11-12T20:50:20.161Z,10.80
2022-11-12T20:53:05.844Z,10.70
2022-11-12T20:55:52.027Z,10.80
2022-11-12T20:58:37.779Z,10.70
2022-11-12T21:01:25.424Z,10.70
2022-11-12T21:04:12.532Z,10.80
2022-11-12T21:07:03.926Z,10.80
2022-11-12T21:09:51.157Z,10.70
2022-11-12T21:12:37.451Z,10.80
2022-11-12T21:15:22.958Z,10.80
2022-11-12T21:18:09.126Z,10.80
2022-11-12T21:21:08.335Z,10.80
2022-11-12T21:23:54.542Z,10.80
2022-11-12T21:26:40.485Z,10.80
2022-11-12T21:29:26.649Z,10.80
2022-11-12T21:32:12.875Z,10.80
2022-11-12T21:34:59.110Z,10.80
2022-11-12T21:37:44.779Z,10.80
2022-11-12T21:40:30.547Z,10.80
2022-11-12T21:43:16.393Z,10.80
2022-11-12T21:46:03.565Z,10.80
2022-11-12T21:48:54.805Z,10.80
2022-11-12T21:51:41.588Z,10.80
2022-11-12T21:54:27.513Z,10.80
2022-11-12T21:57:18.453Z,10.80
2022-11-12T22:00:39.147Z,10.80
2022-11-12T22:03:11.473Z,10.80
2022-11-12T22:05:59.938Z,10.80
2022-11-12T22:08:46.308Z,10.80
2022-11-12T22:11:32.040Z,10.80
2022-11-12T22:14:18.042Z,10.80
2022-11-12T22:17:03.594Z,10.80
2022-11-12T22:19:49.873Z,10.80
2022-11-12T22:22:35.558Z,10.90
2022-11-12T22:25:22.494Z,10.80
2022-11-12T22:28:08.174Z,10.80
2022-11-12T22:30:54.369Z,10.90
2022-11-12T22:33:40.102Z,10.80
2022-11-12T22:36:30.430Z,10.90
2022-11-12T22:39:16.549Z,10.90
2022-11-12T22:42:03.138Z,10.90
2022-11-12T22:44:49.041Z,10.90
2022-11-12T22:47:35.406Z,10.90
2022-11-12T22:50:21.447Z,10.90
2022-11-12T22:53:07.368Z,10.90
2022-11-12T22:55:53.159Z,10.90
2022-11-12T22:58:41.171Z,10.90
2022-11-12T23:01:32.418Z,10.90
2022-11-12T23:04:18.355Z,10.90
2022-11-12T23:07:04.167Z,10.90
2022-11-12T23:09:50.423Z,10.90
2022-11-12T23:12:36.263Z,10.80
2022-11-12T23:15:22.050Z,10.90
2022-11-12T23:18:07.684Z,10.80
2022-11-12T23:20:54.282Z,10.80
2022-11-12T23:23:40.618Z,10.90
2022-11-12T23:26:31.071Z,10.80
2022-11-12T23:29:17.222Z,10.90
2022-11-12T23:32:03.593Z,10.90
2022-11-12T23:34:49.062Z,10.90
2022-11-12T23:37:34.875Z,10.90
2022-11-12T23:40:20.707Z,10.90
2022-11-12T23:43:07.707Z,10.90
2022-11-12T23:45:53.497Z,10.90
2022-11-12T23:48:40.262Z,10.90
2022-11-12T23:51:25.729Z,10.90
2022-11-12T23:54:12.100Z,10.90
2022-11-12T23:56:58.104Z,10.90
2022-11-12T23:59:43.931Z,10.90
